createdAt,value
2023-04-02T00:00:10.378Z,8.93
2023-04-02T00:03:15.411Z,8.82
2023-04-02T00:06:30.427Z,8.78
2023-04-02T00:09:37.130Z,8.67
2023-04-02T00:12:39.650Z,8.67
2023-04-02T00:15:46.791Z,8.69
2023-04-02T00:18:53.219Z,8.77
2023-04-02T00:21:57.403Z,8.83
2023-04-02T00:25:02.658Z,8.88
2023-04-02T00:28:05.000Z,8.88
2023-04-02T00:31:10.585Z,8.88
2023-04-02T00:34:28.048Z,8.95
2023-04-02T00:37:39.132Z,9.02
2023-04-02T00:40:42.451Z,9.18
2023-04-02T00:43:57.849Z,9.40
2023-04-02T00:47:12.106Z,9.50
2023-04-02T00:50:15.542Z,9.65
2023-04-02T00:53:25.843Z,9.65
2023-04-02T00:56:33.268Z,9.64
2023-04-02T00:59:43.231Z,9.64
2023-04-02T01:03:13.145Z,9.66
2023-04-02T01:06:18.804Z,9.69
2023-04-02T01:09:53.203Z,9.72
2023-04-02T01:13:01.570Z,9.69
2023-04-02T01:16:22.830Z,9.67
2023-04-02T01:20:08.001Z,9.69
2023-04-02T01:23:13.450Z,9.66
2023-04-02T01:26:45.799Z,9.63
2023-04-02T01:30:01.425Z,9.51
2023-04-02T01:33:05.668Z,9.45
2023-04-02T01:36:24.055Z,9.42
2023-04-02T01:39:45.368Z,9.46
2023-04-02T01:43:29.574Z,9.54
2023-04-02T01:46:34.482Z,9.52
2023-04-02T01:49:36.999Z,9.48
2023-04-02T01:52:45.123Z,9.53
2023-04-02T01:55:54.874Z,9.53
2023-04-02T01:58:59.236Z,9.39
2023-04-02T02:02:05.948Z,9.35
2023-04-02T02:05:19.185Z,9.32
2023-04-02T02:08:39.317Z,9.23
2023-04-02T02:11:42.540Z,9.29
2023-04-02T02:14:52.391Z,9.22
2023-04-02T02:18:00.954Z,9.13
2023-04-02T02:21:07.810Z,9.16
2023-04-02T02:24:20.848Z,9.20
2023-04-02T02:27:23.121Z,9.14
2023-04-02T02:30:44.784Z,9.18
2023-04-02T02:33:53.084Z,9.20
2023-04-02T02:37:02.576Z,9.18
2023-04-02T02:40:13.010Z,9.04
2023-04-02T02:43:17.450Z,9.07
2023-04-02T02:46:23.802Z,9.03
2023-04-02T02:49:31.609Z,9.01
2023-04-02T02:52:39.196Z,9.14
2023-04-02T02:55:43.066Z,9.16
2023-04-02T02:58:46.271Z,9.26
2023-04-02T03:01:49.703Z,9.41
2023-04-02T03:04:54.986Z,9.37
2023-04-02T03:07:59.406Z,9.33
2023-04-02T03:11:09.336Z,9.24
2023-04-02T03:14:24.066Z,9.23
2023-04-02T03:17:34.585Z,9.25
2023-04-02T03:20:48.340Z,9.10
2023-04-02T03:24:03.523Z,9.14
2023-04-02T03:27:29.112Z,9.07
2023-04-02T03:30:54.249Z,8.92
2023-04-02T03:34:02.006Z,8.96
2023-04-02T03:37:22.525Z,9.04
2023-04-02T03:40:31.822Z,9.08
2023-04-02T03:43:40.738Z,9.12
2023-04-02T03:46:57.426Z,9.07
2023-04-02T03:50:06.390Z,9.07
2023-04-02T03:53:09.443Z,8.92
2023-04-02T03:56:40.396Z,9.00
2023-04-02T03:59:59.137Z,9.20
2023-04-02T04:03:23.073Z,9.18
2023-04-02T04:06:29.871Z,9.09
2023-04-02T04:09:37.097Z,9.04
2023-04-02T04:12:44.383Z,9.05
2023-04-02T04:15:57.862Z,9.16
2023-04-02T04:19:07.064Z,9.25
2023-04-02T04:22:30.316Z,9.12
2023-04-02T04:25:34.371Z,9.21
2023-04-02T04:29:05.759Z,9.29
2023-04-02T04:32:34.109Z,9.27
2023-04-02T04:35:40.296Z,9.17
2023-04-02T04:38:55.266Z,9.20
2023-04-02T04:42:02.668Z,9.22
2023-04-02T04:45:28.815Z,9.27
2023-04-02T04:48:46.306Z,9.28
2023-04-02T04:51:54.863Z,9.46
2023-04-02T04:54:57.918Z,9.54
2023-04-02T04:58:33.704Z,9.56
2023-04-02T05:01:52.694Z,9.44
2023-04-02T05:04:57.315Z,9.52
2023-04-02T05:08:15.888Z,9.67
2023-04-02T05:11:32.225Z,9.65
2023-04-02T05:14:48.249Z,9.76
2023-04-02T05:17:59.782Z,10.45
2023-04-02T05:21:14.360Z,11.13
2023-04-02T05:24:33.395Z,11.90
2023-04-02T05:27:38.335Z,13.27
2023-04-02T05:30:49.255Z,14.63
2023-04-02T05:33:55.058Z,14.99
2023-04-02T05:36:58.644Z,15.92
2023-04-02T05:40:13.527Z,17.51
2023-04-02T05:43:19.820Z,16.78
2023-04-02T05:46:28.040Z,18.13
2023-04-02T05:49:46.022Z,18.40
2023-04-02T05:52:57.089Z,17.44
2023-04-02T05:56:18.795Z,17.64
2023-04-02T05:59:37.584Z,19.57
2023-04-02T06:02:45.477Z,15.75
2023-04-02T06:05:49.112Z,14.65
2023-04-02T06:09:00.845Z,15.11
2023-04-02T06:12:16.022Z,16.23
2023-04-02T06:15:22.195Z,14.64
2023-04-02T06:18:27.635Z,14.30
2023-04-02T06:21:29.979Z,14.78
2023-04-02T06:24:34.287Z,16.19
2023-04-02T06:27:41.928Z,16.51
2023-04-02T06:30:45.864Z,16.26
2023-04-02T06:33:52.273Z,16.51
2023-04-02T06:36:59.384Z,13.43
2023-04-02T06:40:05.591Z,13.00
2023-04-02T06:43:33.403Z,13.49
2023-04-02T06:46:49.930Z,16.42
2023-04-02T06:50:03.989Z,20.43
2023-04-02T06:53:11.951Z,22.41
2023-04-02T06:56:37.388Z,21.84
2023-04-02T06:59:39.972Z,19.65
2023-04-02T07:02:43.192Z,19.19
2023-04-02T07:05:46.082Z,17.20
2023-04-02T07:08:49.477Z,17.72
2023-04-02T07:11:52.070Z,16.01
2023-04-02T07:14:55.092Z,15.95
2023-04-02T07:17:59.668Z,16.27
2023-04-02T07:21:02.631Z,16.62
2023-04-02T07:24:06.113Z,15.15
2023-04-02T07:27:11.033Z,14.48
2023-04-02T07:30:13.367Z,14.69
2023-04-02T07:33:18.137Z,15.53
2023-04-02T07:36:23.573Z,16.20
2023-04-02T07:39:26.328Z,16.95
2023-04-02T07:42:28.617Z,17.53
2023-04-02T07:45:31.525Z,17.35
2023-04-02T07:48:33.788Z,16.83
2023-04-02T07:51:37.067Z,17.07
2023-04-02T07:54:39.851Z,17.51
2023-04-02T07:57:51.756Z,18.47
2023-04-02T08:00:54.213Z,18.43
2023-04-02T08:03:57.904Z,18.59
2023-04-02T08:07:01.692Z,18.12
2023-04-02T08:10:04.582Z,17.91
2023-04-02T08:13:06.770Z,17.13
2023-04-02T08:16:09.694Z,16.55
2023-04-02T08:19:11.992Z,17.06
2023-04-02T08:22:14.635Z,16.84
2023-04-02T08:25:17.336Z,16.41
2023-04-02T08:28:21.305Z,16.51
2023-04-02T08:31:23.623Z,16.75
2023-04-02T08:34:26.366Z,17.27
2023-04-02T08:37:28.582Z,16.41
2023-04-02T08:40:38.935Z,16.70
2023-04-02T08:43:59.077Z,16.61
2023-04-02T08:47:05.160Z,17.09
2023-04-02T08:50:15.333Z,16.79
2023-04-02T08:53:23.078Z,16.66
2023-04-02T08:56:36.947Z,16.21
2023-04-02T08:59:41.665Z,16.68
2023-04-02T09:02:49.595Z,17.08
2023-04-02T09:05:53.229Z,17.13
2023-04-02T09:08:57.090Z,17.96
2023-04-02T09:12:04.514Z,17.72
2023-04-02T09:15:35.572Z,18.03
2023-04-02T09:18:39.479Z,18.05
2023-04-02T09:21:46.970Z,18.87
2023-04-02T09:24:57.870Z,18.54
2023-04-02T09:28:05.116Z,18.50
2023-04-02T09:31:22.307Z,18.53
2023-04-02T09:34:28.578Z,18.73
2023-04-02T09:37:31.095Z,18.97
2023-04-02T09:40:51.102Z,18.32
2023-04-02T09:44:12.859Z,18.33
2023-04-02T09:47:26.408Z,17.85
2023-04-02T09:50:32.488Z,17.93
2023-04-02T09:53:38.680Z,17.21
2023-04-02T09:57:04.609Z,17.21
2023-04-02T10:00:30.642Z,17.46
2023-04-02T10:03:35.028Z,17.64
2023-04-02T10:06:37.392Z,17.58
2023-04-02T10:09:40.024Z,17.37
2023-04-02T10:12:46.162Z,17.40
2023-04-02T10:16:04.164Z,16.93
2023-04-02T10:19:06.516Z,17.93
2023-04-02T10:22:32.528Z,18.36
2023-04-02T10:25:42.255Z,18.39
2023-04-02T10:28:53.278Z,19.13
2023-04-02T10:32:14.235Z,19.36
2023-04-02T10:35:29.024Z,19.40
2023-04-02T10:39:12.143Z,18.86
2023-04-02T10:42:33.250Z,17.90
2023-04-02T10:45:50.774Z,17.82
2023-04-02T10:48:59.842Z,17.98
2023-04-02T10:52:13.524Z,17.65
2023-04-02T10:55:25.444Z,17.31
2023-04-02T10:58:31.799Z,17.66
2023-04-02T11:01:35.359Z,17.91
2023-04-02T11:04:44.099Z,18.40
2023-04-02T11:08:13.632Z,18.66
2023-04-02T11:11:22.631Z,18.39
2023-04-02T11:14:32.803Z,18.06
2023-04-02T11:17:35.138Z,21.02
2023-04-02T11:20:57.574Z,23.43
2023-04-02T11:24:01.936Z,24.48
2023-04-02T11:27:10.491Z,25.52
2023-04-02T11:30:15.921Z,23.35
2023-04-02T11:33:44.766Z,20.22
2023-04-02T11:36:52.622Z,18.45
2023-04-02T11:39:58.220Z,17.56
2023-04-02T11:43:33.497Z,17.36
2023-04-02T11:46:40.293Z,17.49
2023-04-02T11:49:54.874Z,16.73
2023-04-02T11:53:15.855Z,16.08
2023-04-02T11:56:40.673Z,15.82
2023-04-02T11:59:50.686Z,15.44
2023-04-02T12:03:25.825Z,15.61
2023-04-02T12:06:59.923Z,16.27
2023-04-02T12:10:05.893Z,18.05
2023-04-02T12:13:19.500Z,18.51
2023-04-02T12:16:22.964Z,17.80
2023-04-02T12:19:26.619Z,17.86
2023-04-02T12:22:31.915Z,18.65
2023-04-02T12:25:40.360Z,18.67
2023-04-02T12:28:46.378Z,19.68
2023-04-02T12:31:49.015Z,20.31
2023-04-02T12:34:52.612Z,22.32
2023-04-02T12:37:55.373Z,21.91
2023-04-02T12:41:06.376Z,22.12
2023-04-02T12:44:17.377Z,20.20
2023-04-02T12:47:19.591Z,21.10
2023-04-02T12:50:22.958Z,20.71
2023-04-02T12:53:39.074Z,19.59
2023-04-02T12:56:41.635Z,17.86
2023-04-02T12:59:44.073Z,16.73
2023-04-02T13:02:50.380Z,16.41
2023-04-02T13:05:57.432Z,16.92
2023-04-02T13:09:02.118Z,18.98
2023-04-02T13:12:04.657Z,20.70
2023-04-02T13:15:37.076Z,22.00
2023-04-02T13:18:39.335Z,22.69
2023-04-02T13:21:41.951Z,21.65
2023-04-02T13:24:44.382Z,21.39
2023-04-02T13:27:46.994Z,20.15
2023-04-02T13:30:49.517Z,19.86
2023-04-02T13:33:52.037Z,20.44
2023-04-02T13:36:55.080Z,20.02
2023-04-02T13:39:57.391Z,18.67
2023-04-02T13:42:59.812Z,17.16
2023-04-02T13:46:06.042Z,17.64
2023-04-02T13:49:10.478Z,17.84
2023-04-02T13:52:17.004Z,17.44
2023-04-02T13:55:23.049Z,17.02
2023-04-02T13:58:25.668Z,16.75
2023-04-02T14:01:27.975Z,16.96
2023-04-02T14:04:35.279Z,17.29
2023-04-02T14:07:58.092Z,17.39
2023-04-02T14:11:25.102Z,17.47
2023-04-02T14:15:01.469Z,17.35
2023-04-02T14:18:26.052Z,17.25
2023-04-02T14:21:34.227Z,17.31
2023-04-02T14:24:57.063Z,17.25
2023-04-02T14:28:10.364Z,17.06
2023-04-02T14:31:25.727Z,17.20
2023-04-02T14:34:33.832Z,17.52
2023-04-02T14:37:55.254Z,17.01
2023-04-02T14:41:04.680Z,16.52
2023-04-02T14:44:08.618Z,16.04
2023-04-02T14:47:18.986Z,15.98
2023-04-02T14:50:28.005Z,15.38
2023-04-02T14:53:44.076Z,15.03
2023-04-02T14:56:54.506Z,14.59
2023-04-02T15:00:02.647Z,14.70
2023-04-02T15:03:12.371Z,14.58
2023-04-02T15:06:23.492Z,14.09
2023-04-02T15:09:35.607Z,13.92
2023-04-02T15:12:41.134Z,13.78
2023-04-02T15:15:54.249Z,13.72
2023-04-02T15:18:58.470Z,13.42
2023-04-02T15:22:14.266Z,13.23
2023-04-02T15:25:42.726Z,12.20
2023-04-02T15:29:31.552Z,11.03
2023-04-02T15:32:39.035Z,10.37
2023-04-02T15:35:51.140Z,10.06
2023-04-02T15:39:18.414Z,9.66
2023-04-02T15:42:28.560Z,9.51
2023-04-02T15:45:51.791Z,9.45
2023-04-02T15:49:03.165Z,9.49
2023-04-02T15:52:12.332Z,9.45
2023-04-02T15:55:34.593Z,9.48
2023-04-02T15:59:08.453Z,9.54
2023-04-02T16:02:23.169Z,9.62
2023-04-02T16:05:47.281Z,9.80
2023-04-02T16:08:57.047Z,10.01
2023-04-02T16:12:15.526Z,10.15
2023-04-02T16:15:25.825Z,10.31
2023-04-02T16:18:43.346Z,10.40
2023-04-02T16:21:58.734Z,10.64
2023-04-02T16:25:13.477Z,10.90
2023-04-02T16:28:28.276Z,11.10
2023-04-02T16:31:59.050Z,11.26
2023-04-02T16:35:42.805Z,11.44
2023-04-02T16:38:52.355Z,11.50
2023-04-02T16:42:24.327Z,11.45
2023-04-02T16:45:33.270Z,11.16
2023-04-02T16:48:41.038Z,11.07
2023-04-02T16:52:14.158Z,11.04
2023-04-02T16:55:41.042Z,11.06
2023-04-02T16:59:22.985Z,11.05
2023-04-02T17:02:54.683Z,10.85
2023-04-02T17:06:14.622Z,10.60
2023-04-02T17:09:28.189Z,10.39
2023-04-02T17:12:39.740Z,10.21
2023-04-02T17:15:45.824Z,10.15
2023-04-02T17:18:52.270Z,10.13
2023-04-02T17:21:59.386Z,10.10
2023-04-02T17:25:04.245Z,10.00
2023-04-02T17:28:12.521Z,10.05
2023-04-02T17:31:27.101Z,9.93
2023-04-02T17:34:29.554Z,9.93
2023-04-02T17:37:43.352Z,9.95
2023-04-02T17:40:55.746Z,9.76
2023-04-02T17:44:23.518Z,9.83
2023-04-02T17:47:38.692Z,9.68
2023-04-02T17:50:53.956Z,9.65
2023-04-02T17:54:06.859Z,9.70
2023-04-02T17:57:09.339Z,9.54
2023-04-02T18:00:35.263Z,9.23
2023-04-02T18:03:40.998Z,9.10
2023-04-02T18:06:46.044Z,9.20
2023-04-02T18:10:21.830Z,9.12
2023-04-02T18:13:55.287Z,9.03
2023-04-02T18:17:34.410Z,8.85
2023-04-02T18:21:06.906Z,8.57
2023-04-02T18:24:18.344Z,8.60
2023-04-02T18:27:35.048Z,8.49
2023-04-02T18:30:57.118Z,8.55
2023-04-02T18:34:04.533Z,8.62
2023-04-02T18:37:29.711Z,8.53
2023-04-02T18:40:50.000Z,8.53
2023-04-02T18:44:29.610Z,8.48
2023-04-02T18:47:47.196Z,8.39
2023-04-02T18:50:50.071Z,8.36
2023-04-02T18:54:25.281Z,8.34
2023-04-02T18:57:34.239Z,8.25
2023-04-02T19:00:41.666Z,8.20
2023-04-02T19:03:50.208Z,8.23
2023-04-02T19:07:02.714Z,8.24
2023-04-02T19:10:20.552Z,8.24
2023-04-02T19:13:22.779Z,8.15
2023-04-02T19:16:43.903Z,7.96
2023-04-02T19:20:06.475Z,7.98
2023-04-02T19:23:43.818Z,7.91
2023-04-02T19:27:07.569Z,7.80
2023-04-02T19:30:28.935Z,7.78
2023-04-02T19:33:39.745Z,7.78
2023-04-02T19:36:46.642Z,7.72
2023-04-02T19:40:16.786Z,7.76
2023-04-02T19:43:19.508Z,7.65
2023-04-02T19:46:23.602Z,7.62
2023-04-02T19:49:33.599Z,7.55
2023-04-02T19:52:36.357Z,7.53
2023-04-02T19:55:40.352Z,7.49
2023-04-02T19:58:42.578Z,7.53
2023-04-02T20:01:45.691Z,7.42
2023-04-02T20:04:48.169Z,7.42
2023-04-02T20:07:50.406Z,7.37
2023-04-02T20:10:52.969Z,7.41
2023-04-02T20:13:55.335Z,7.40
2023-04-02T20:16:57.963Z,7.44
2023-04-02T20:20:00.372Z,7.46
2023-04-02T20:23:02.951Z,7.39
2023-04-02T20:26:05.579Z,7.30
2023-04-02T20:29:08.136Z,7.33
2023-04-02T20:32:10.814Z,7.32
2023-04-02T20:35:13.316Z,7.36
2023-04-02T20:38:15.668Z,7.39
2023-04-02T20:41:19.122Z,7.40
2023-04-02T20:44:21.813Z,7.32
2023-04-02T20:47:24.474Z,7.29
2023-04-02T20:50:26.861Z,7.27
2023-04-02T20:53:31.027Z,7.25
2023-04-02T20:56:33.365Z,7.25
2023-04-02T20:59:35.885Z,7.27
2023-04-02T21:02:38.167Z,7.20
2023-04-02T21:05:45.948Z,7.14
2023-04-02T21:08:49.312Z,7.12
2023-04-02T21:11:51.672Z,7.16
2023-04-02T21:14:58.130Z,7.17
2023-04-02T21:18:01.871Z,7.22
2023-04-02T21:21:05.820Z,7.25
2023-04-02T21:24:09.480Z,7.21
2023-04-02T21:27:12.443Z,7.21
2023-04-02T21:30:14.927Z,7.16
2023-04-02T21:33:17.139Z,7.18
2023-04-02T21:36:22.851Z,7.26
2023-04-02T21:39:25.300Z,7.30
2023-04-02T21:42:27.840Z,7.34
2023-04-02T21:45:30.153Z,7.36
2023-04-02T21:48:32.727Z,7.40
2023-04-02T21:51:36.604Z,7.39
2023-04-02T21:54:39.110Z,7.38
2023-04-02T21:57:41.369Z,7.37
2023-04-02T22:00:43.866Z,7.29
2023-04-02T22:03:46.586Z,7.29
2023-04-02T22:06:52.507Z,7.20
2023-04-02T22:09:54.989Z,7.17
2023-04-02T22:12:58.212Z,7.17
2023-04-02T22:16:03.616Z,7.27
2023-04-02T22:19:10.565Z,7.28
2023-04-02T22:22:13.012Z,7.20
2023-04-02T22:25:15.695Z,7.18
2023-04-02T22:28:18.234Z,7.10
2023-04-02T22:31:23.238Z,7.08
2023-04-02T22:34:25.816Z,7.07
2023-04-02T22:37:28.974Z,7.02
2023-04-02T22:40:31.517Z,6.98
2023-04-02T22:43:34.604Z,7.04
2023-04-02T22:46:37.268Z,6.95
2023-04-02T22:49:39.622Z,6.93
2023-04-02T22:52:42.703Z,6.94
2023-04-02T22:55:45.161Z,6.85
2023-04-02T22:58:48.386Z,6.84
2023-04-02T23:01:50.608Z,6.77
2023-04-02T23:04:53.195Z,6.64
2023-04-02T23:07:55.472Z,6.67
2023-04-02T23:11:16.400Z,6.63
2023-04-02T23:14:18.655Z,6.59
2023-04-02T23:17:21.197Z,6.60
2023-04-02T23:20:23.396Z,6.64
2023-04-02T23:23:26.120Z,6.51
2023-04-02T23:26:31.150Z,6.53
2023-04-02T23:29:33.710Z,6.59
2023-04-02T23:32:36.137Z,6.61
2023-04-02T23:35:38.816Z,6.43
2023-04-02T23:38:41.250Z,6.35
2023-04-02T23:41:43.742Z,6.39
2023-04-02T23:44:46.057Z,6.36
2023-04-02T23:47:48.566Z,6.38
2023-04-02T23:50:50.787Z,6.49
2023-04-02T23:53:55.416Z,6.43
2023-04-02T23:56:57.615Z,6.31
